Time;durP1;ratioP1;P1;durP2;ratioP2;P2;SDS_P1;SDS_P2;PMS_P1;PMS_P2;Temp;Humidity;BMP_temperature;BMP_pressure;BME280_temperature;BME280_humidity;BME280_pressure;Samples;Min_cycle;Max_cycle;Signal;HPM_P1;HPM_P2
2024/03/20 06:21:08;;;;;;;24.85;11.90;;;;;;;4.91;97.68;96840.38;2102028;27;20566;-69
2024/03/20 06:26:34;;;;;;;35.78;16.02;;;;;;;5.77;95.58;96842.94;2112924;27;20558;-69
2024/03/20 06:57:29;;;;;;;11.00;5.45;;;;;;;7.07;85.88;96865.69;2085213;28;20571;-69
2024/03/20 07:00:19;;;;;;;13.57;5.53;;;;;;;7.29;85.76;96844.34;2082321;28;20565;-69
2024/03/20 07:01:20;;;;;;;9.95;5.80;;;;;;;7.91;84.56;96865.91;2081335;28;20220;-69
2024/03/20 07:02:21;;;;;;;10.93;6.03;;;;;;;8.08;83.27;96860.22;2069100;28;20218;-69
2024/03/20 07:03:22;;;;;;;13.23;6.32;;;;;;;8.11;82.56;96862.72;2070494;28;20275;-70
2024/03/20 07:04:26;;;;;;;11.00;5.35;;;;;;;8.16;82.74;96871.22;2074125;28;20201;-69
2024/03/20 07:05:27;;;;;;;12.73;5.63;;;;;;;8.28;82.01;96870.00;2075716;28;20201;-69
2024/03/20 07:06:27;;;;;;;10.20;5.83;;;;;;;8.38;82.34;96868.78;2076462;28;20258;-70
2024/03/20 07:07:28;;;;;;;24.03;6.37;;;;;;;8.64;81.23;96878.38;2076165;28;20336;-70
2024/03/20 07:08:31;;;;;;;10.55;6.40;;;;;;;9.04;79.57;96872.72;2074781;28;20208;-70
2024/03/20 07:09:32;;;;;;;11.05;6.60;;;;;;;9.18;79.04;96880.91;2073903;28;20221;-68
2024/03/20 07:10:32;;;;;;;13.60;6.25;;;;;;;9.24;78.56;96877.22;2082505;28;20665;-69
2024/03/20 07:11:33;;;;;;;12.37;5.10;;;;;;;9.50;77.61;96872.81;2077722;28;20614;-70
2024/03/20 07:12:34;;;;;;;8.13;5.07;;;;;;;9.63;77.25;96874.06;2078680;28;20200;-69
2024/03/20 07:13:35;;;;;;;9.90;4.93;;;;;;;9.64;75.74;96871.41;2074309;28;20255;-70
2024/03/20 07:14:36;;;;;;;16.13;5.23;;;;;;;9.94;75.71;96878.97;2072990;28;20266;-70
2024/03/20 07:15:36;;;;;;;11.37;4.87;;;;;;;10.19;74.52;96871.97;2073836;28;20775;-70
2024/03/20 07:16:37;;;;;;;15.10;5.60;;;;;;;9.99;74.92;96873.56;2074385;28;20205;-70
2024/03/20 07:17:39;;;;;;;12.77;5.20;;;;;;;9.98;74.64;96877.13;2065994;28;20210;-70
2024/03/20 07:18:39;;;;;;;9.38;5.47;;;;;;;10.37;73.75;96873.84;2067043;28;20198;-70
2024/03/20 07:19:40;;;;;;;8.97;5.70;;;;;;;10.46;72.91;96875.25;2069716;28;20213;-70
2024/03/20 07:20:40;;;;;;;13.80;5.90;;;;;;;10.52;73.25;96879.38;2074821;28;20226;-70
2024/03/20 07:21:41;;;;;;;16.10;4.97;;;;;;;10.49;73.64;96876.88;2074213;28;20231;-70
2024/03/20 07:22:41;;;;;;;8.97;5.33;;;;;;;10.04;75.29;96876.00;2074208;28;20252;-70
2024/03/20 07:23:42;;;;;;;14.73;5.53;;;;;;;10.35;74.83;96877.41;2073930;28;20566;-70
2024/03/20 07:24:42;;;;;;;8.97;5.40;;;;;;;10.67;74.01;96883.13;2072642;28;20228;-69
2024/03/20 07:25:43;;;;;;;8.07;5.20;;;;;;;10.95;73.08;96875.81;2077267;28;20841;-70
2024/03/20 07:26:43;;;;;;;18.87;6.10;;;;;;;11.01;72.92;96879.94;2077599;28;20955;-70
2024/03/20 07:27:44;;;;;;;13.00;6.80;;;;;;;11.38;71.83;96880.94;2078852;28;20654;-69
2024/03/20 07:28:44;;;;;;;13.10;7.17;;;;;;;11.52;71.21;96882.13;2074702;28;20205;-70
2024/03/20 07:29:45;;;;;;;12.23;6.83;;;;;;;11.56;71.28;96874.03;2076091;28;20689;-70
2024/03/20 07:30:45;;;;;;;13.03;6.97;;;;;;;11.81;70.75;96883.41;2082117;28;20204;-70
2024/03/20 07:31:46;;;;;;;15.50;7.10;;;;;;;11.88;70.62;96887.47;2074990;28;20594;-70
2024/03/20 07:32:47;;;;;;;15.20;7.37;;;;;;;11.90;71.81;96879.53;2073570;28;20216;-70
2024/03/20 07:33:47;;;;;;;14.60;7.00;;;;;;;12.17;70.19;96884.41;2083336;28;20209;-70
2024/03/20 07:34:48;;;;;;;13.97;7.47;;;;;;;11.90;70.79;96884.75;2075783;28;20308;-70
2024/03/20 07:35:48;;;;;;;15.30;7.60;;;;;;;11.52;72.12;96879.50;2078046;28;20263;-70
2024/03/20 07:36:49;;;;;;;11.37;6.50;;;;;;;12.12;71.56;96889.88;2074603;28;20210;-70
2024/03/20 07:37:50;;;;;;;13.43;6.63;;;;;;;12.35;71.14;96880.06;2070280;28;20241;-70
2024/03/20 07:38:51;;;;;;;13.82;6.50;;;;;;;12.78;70.02;96874.50;2078346;28;20247;-70
2024/03/20 07:39:52;;;;;;;13.52;7.03;;;;;;;12.88;69.68;96881.81;2083684;28;20225;-70
2024/03/20 07:40:54;;;;;;;11.68;5.72;;;;;;;13.38;69.01;96881.97;2075255;28;20669;-70
2024/03/20 07:41:54;;;;;;;11.05;6.30;;;;;;;13.75;66.98;96880.03;2076345;28;20202;-70
2024/03/20 07:42:56;;;;;;;13.00;6.53;;;;;;;14.25;65.72;96877.34;2075927;28;20216;-69
2024/03/20 07:43:57;;;;;;;13.43;7.25;;;;;;;14.11;65.83;96878.94;2074573;28;20536;-69
2024/03/20 07:44:57;;;;;;;14.27;6.70;;;;;;;14.68;64.53;96882.81;2077647;28;20578;-71
2024/03/20 07:45:58;;;;;;;13.30;6.40;;;;;;;14.60;64.13;96890.25;2078265;28;20674;-70
2024/03/20 07:47:00;;;;;;;8.07;4.83;;;;;;;14.61;64.61;96886.69;2077913;28;20428;-70
2024/03/20 07:48:00;;;;;;;12.93;4.75;;;;;;;14.68;64.63;96888.09;2078521;28;20205;-70
2024/03/20 07:49:02;;;;;;;10.13;4.95;;;;;;;14.90;64.24;96884.22;2072238;28;20212;-70
2024/03/20 07:50:05;;;;;;;10.77;5.40;;;;;;;14.90;64.03;96878.94;2065491;28;20218;-70
2024/03/20 07:51:06;;;;;;;14.05;5.32;;;;;;;14.66;64.75;96882.06;2062021;28;20680;-70
2024/03/20 07:52:06;;;;;;;10.03;5.77;;;;;;;14.05;66.56;96892.41;2069393;28;20650;-70
2024/03/20 07:53:07;;;;;;;14.97;5.60;;;;;;;14.29;66.15;96887.56;2069134;28;20495;-71
2024/03/20 07:54:09;;;;;;;9.30;5.10;;;;;;;14.53;65.92;96884.50;2064476;28;20202;-70
2024/03/20 07:55:10;;;;;;;8.00;5.55;;;;;;;14.47;65.79;96888.31;2067031;28;20382;-70
2024/03/20 07:56:12;;;;;;;14.80;4.73;;;;;;;14.51;65.28;96892.50;2067279;28;20371;-70
2024/03/20 07:57:12;;;;;;;7.38;4.80;;;;;;;14.63;65.58;96890.09;2064842;28;20643;-70
2024/03/20 07:58:13;;;;;;;6.07;3.90;;;;;;;14.93;64.73;96874.38;2064375;28;20562;-69
2024/03/20 07:59:14;;;;;;;8.10;4.40;;;;;;;14.92;64.06;96888.44;2066007;28;20202;-70
2024/03/20 08:00:16;;;;;;;6.90;3.83;;;;;;;15.13;64.06;96890.75;2069270;28;20217;-70
2024/03/20 08:01:16;;;;;;;9.00;3.58;;;;;;;15.11;63.17;96880.31;2075057;28;20193;-70
2024/03/20 08:02:17;;;;;;;6.67;3.90;;;;;;;14.98;64.59;96888.09;2067715;28;20212;-70
2024/03/20 08:03:17;;;;;;;6.10;3.80;;;;;;;15.08;63.79;96890.16;2060050;28;20262;-70
2024/03/20 08:04:18;;;;;;;5.70;3.50;;;;;;;15.18;64.51;96897.44;2068609;28;20288;-70
2024/03/20 08:05:19;;;;;;;7.43;3.47;;;;;;;15.54;63.27;96889.19;2067811;28;20237;-70
2024/03/20 08:06:19;;;;;;;7.43;3.30;;;;;;;15.67;63.22;96895.41;2063301;28;20209;-70
2024/03/20 08:07:20;;;;;;;5.00;3.33;;;;;;;16.03;61.71;96888.81;2065453;28;20214;-70
2024/03/20 08:08:21;;;;;;;6.13;3.00;;;;;;;16.15;61.61;96892.47;2064789;28;20210;-70
2024/03/20 08:09:21;;;;;;;5.87;3.33;;;;;;;16.19;61.62;96887.84;2069867;28;20281;-70
2024/03/20 08:10:24;;;;;;;7.60;3.50;;;;;;;16.54;61.15;96890.03;2067972;28;21152;-72
2024/03/20 08:11:25;;;;;;;6.30;3.42;;;;;;;16.60;60.60;96890.47;2065860;28;20225;-70
2024/03/20 08:12:26;;;;;;;6.73;3.90;;;;;;;16.75;60.14;96888.63;2064538;28;20793;-69
2024/03/20 08:13:27;;;;;;;15.85;4.53;;;;;;;16.83;60.56;96889.91;2063848;28;20528;-70
2024/03/20 08:14:28;;;;;;;8.65;3.55;;;;;;;16.89;59.53;96881.59;2064166;28;20338;-70
2024/03/20 08:15:28;;;;;;;5.77;2.53;;;;;;;17.04;59.61;96883.25;2060588;28;20334;-70
2024/03/20 08:16:29;;;;;;;4.07;2.60;;;;;;;17.05;59.20;96879.66;2059869;28;20217;-70
2024/03/20 08:17:29;;;;;;;8.43;3.93;;;;;;;17.50;58.58;96884.53;2059822;28;20222;-70
2024/03/20 08:18:31;;;;;;;7.03;3.43;;;;;;;17.50;58.87;96879.25;2059771;28;20215;-70
2024/03/20 08:19:32;;;;;;;4.50;3.00;;;;;;;17.33;58.49;96879.56;2061644;28;20591;-70
2024/03/20 08:20:35;;;;;;;9.60;3.20;;;;;;;17.65;58.11;96877.34;2070842;28;20209;-70
2024/03/20 08:21:36;;;;;;;5.07;3.17;;;;;;;17.03;59.51;96878.91;2071493;28;20205;-70
2024/03/20 08:22:36;;;;;;;5.80;2.60;;;;;;;17.12;58.75;96880.09;2071228;28;20218;-70
2024/03/20 08:23:37;;;;;;;6.70;3.37;;;;;;;16.96;59.43;96877.63;2062995;28;20849;-70
2024/03/20 08:24:37;;;;;;;6.80;3.90;;;;;;;17.00;59.24;96876.50;2070793;28;20591;-70
2024/03/20 08:25:38;;;;;;;4.80;2.90;;;;;;;17.27;58.63;96875.56;2076126;28;20358;-70
2024/03/20 08:26:39;;;;;;;6.40;3.33;;;;;;;17.05;59.22;96884.94;2069011;28;20289;-70
2024/03/20 08:27:39;;;;;;;5.43;2.30;;;;;;;17.07;58.37;96879.56;2068986;28;20658;-70
2024/03/20 08:28:40;;;;;;;4.13;2.20;;;;;;;17.05;58.51;96879.66;2074958;28;20447;-70
2024/03/20 08:29:41;;;;;;;7.60;2.47;;;;;;;17.57;58.12;96879.66;2078125;28;20205;-70
2024/03/20 08:30:41;;;;;;;4.83;2.30;;;;;;;17.70;57.20;96877.03;2068566;28;20237;-70
2024/03/20 08:31:42;;;;;;;6.27;2.20;;;;;;;17.67;56.94;96872.78;2069652;28;20240;-70
2024/03/20 08:32:43;;;;;;;7.00;2.60;;;;;;;17.44;57.56;96888.44;2077526;28;20223;-69
2024/03/20 08:33:44;;;;;;;4.93;1.90;;;;;;;17.24;56.11;96875.75;2063529;28;20817;-71
2024/03/20 08:34:45;;;;;;;5.25;2.20;;;;;;;18.06;56.16;96881.53;2063764;28;20222;-69
2024/03/20 08:35:55;;;;;;;11.30;3.30;;;;;;;17.41;56.96;96880.72;2072545;28;20221;-70
2024/03/20 08:36:56;;;;;;;6.88;2.05;;;;;;;17.45;55.54;96879.56;2081571;28;20201;-70
2024/03/20 08:37:56;;;;;;;3.80;2.17;;;;;;;17.40;56.09;96879.03;2080322;28;20255;-70
2024/03/20 08:38:56;;;;;;;8.07;2.10;;;;;;;17.18;56.89;96869.13;2075405;28;20277;-70
2024/03/20 08:40:01;;;;;;;4.47;1.80;;;;;;;17.27;57.21;96880.84;2069952;28;20229;-70
2024/03/20 08:41:05;;;;;;;2.83;1.50;;;;;;;17.04;56.70;96874.47;2070647;28;20267;-69
2024/03/20 08:42:05;;;;;;;4.80;1.80;;;;;;;17.01;56.87;96870.25;2075453;28;20275;-69
2024/03/20 08:43:06;;;;;;;4.23;1.60;;;;;;;16.60;57.58;96858.81;2066871;28;20206;-70
2024/03/20 08:44:08;;;;;;;5.60;2.10;;;;;;;16.53;57.77;96877.78;2067160;28;20277;-70
2024/03/20 08:45:09;;;;;;;5.80;1.92;;;;;;;16.50;57.60;96876.19;2065411;28;20304;-69
2024/03/20 08:46:10;;;;;;;6.97;1.60;;;;;;;16.27;57.88;96877.69;2072773;28;20210;-70
2024/03/20 08:47:11;;;;;;;5.33;1.70;;;;;;;15.82;58.19;96881.34;2075095;28;20447;-69
2024/03/20 08:48:11;;;;;;;2.93;1.70;;;;;;;15.57;59.36;96883.75;2066618;28;20436;-69
2024/03/20 08:49:11;;;;;;;7.93;1.87;;;;;;;15.47;59.84;96883.47;2067331;28;20221;-70
2024/03/20 08:50:13;;;;;;;2.90;1.40;;;;;;;15.99;58.95;96884.69;2065464;28;20230;-69
2024/03/20 08:51:13;;;;;;;3.50;2.00;;;;;;;15.87;58.55;96888.09;2062717;28;20215;-70
2024/03/20 08:52:14;;;;;;;6.07;2.17;;;;;;;15.58;59.20;96885.44;2071268;28;20217;-69
2024/03/20 08:53:15;;;;;;;8.93;2.20;;;;;;;15.77;58.90;96886.00;2059471;28;20203;-69
2024/03/20 08:54:15;;;;;;;5.88;1.65;;;;;;;16.25;58.85;96882.19;2058892;28;20203;-69
2024/03/20 08:55:16;;;;;;;3.90;1.77;;;;;;;16.22;58.76;96877.97;2060943;28;20223;-70
2024/03/20 08:56:16;;;;;;;3.23;1.83;;;;;;;16.81;57.76;96882.94;2062607;28;20695;-70
2024/03/20 08:57:17;;;;;;;4.00;1.43;;;;;;;17.05;56.86;96879.66;2059158;28;20659;-69
2024/03/20 08:58:18;;;;;;;3.33;1.65;;;;;;;17.64;56.32;96875.66;2062656;28;20206;-69
2024/03/20 08:59:18;;;;;;;3.67;2.10;;;;;;;17.60;56.48;96882.13;2055871;28;20698;-70
2024/03/20 09:00:19;;;;;;;5.03;1.70;;;;;;;17.38;55.93;96886.25;2054309;28;20230;-70
2024/03/20 09:01:20;;;;;;;3.83;1.87;;;;;;;17.49;56.34;96884.66;2063249;28;20817;-70
2024/03/20 09:02:21;;;;;;;7.60;1.67;;;;;;;17.46;55.66;96878.63;2061052;28;20206;-70
2024/03/20 09:03:22;;;;;;;4.97;1.60;;;;;;;17.28;55.87;96877.22;2063904;28;20195;-69
2024/03/20 09:04:22;;;;;;;6.00;3.10;;;;;;;17.75;55.44;96874.91;2064646;28;20447;-70
2024/03/20 09:05:23;;;;;;;6.43;2.50;;;;;;;18.25;54.98;96878.41;2056310;28;20697;-70
2024/03/20 09:06:24;;;;;;;7.88;1.45;;;;;;;17.69;55.11;96880.63;2057127;28;20203;-70
2024/03/20 09:07:25;;;;;;;2.73;1.53;;;;;;;17.08;56.52;96881.25;2062228;28;20254;-70
2024/03/20 09:08:25;;;;;;;13.37;1.40;;;;;;;17.49;55.23;96887.28;2060267;28;20444;-70
2024/03/20 09:09:26;;;;;;;4.20;1.43;;;;;;;17.88;54.70;96881.03;2060577;28;20240;-70
2024/03/20 09:10:26;;;;;;;3.30;1.40;;;;;;;17.92;54.95;96884.28;2064083;28;20662;-69
2024/03/20 09:11:28;;;;;;;8.53;1.40;;;;;;;17.87;54.27;96883.78;2069307;28;20215;-70
2024/03/20 09:12:29;;;;;;;3.30;1.50;;;;;;;17.43;54.10;96878.84;2069078;28;20210;-69
2024/03/20 09:13:31;;;;;;;3.80;1.50;;;;;;;17.39;54.87;96882.63;2068849;28;20237;-70
2024/03/20 09:14:33;;;;;;;3.00;1.45;;;;;;;17.27;55.51;96879.03;2066379;28;20592;-70
2024/03/20 09:15:33;;;;;;;6.22;1.90;;;;;;;17.19;55.51;96881.38;2057762;28;20223;-69
2024/03/20 09:16:34;;;;;;;3.93;1.33;;;;;;;17.13;55.89;96885.25;2050311;29;20207;-69
2024/03/20 09:17:35;;;;;;;2.67;1.20;;;;;;;17.18;55.86;96879.66;2059607;28;20200;-70
2024/03/20 09:18:35;;;;;;;2.10;1.30;;;;;;;17.52;55.58;96880.00;2066216;28;20198;-69
2024/03/20 09:19:36;;;;;;;6.77;1.73;;;;;;;18.07;54.24;96874.47;2056028;28;20199;-71
2024/03/20 09:20:40;;;;;;;3.40;1.50;;;;;;;18.23;54.03;96880.34;2063819;28;20209;-70
2024/03/20 09:21:43;;;;;;;2.15;1.30;;;;;;;17.86;52.59;96868.88;2063802;28;20690;-70
2024/03/20 09:22:45;;;;;;;2.25;1.38;;;;;;;18.49;52.85;96871.47;2063159;28;20219;-69
2024/03/20 09:23:46;;;;;;;3.97;1.67;;;;;;;19.09;52.99;96874.97;2069056;28;20206;-70
2024/03/20 09:24:47;;;;;;;4.57;1.73;;;;;;;19.48;51.60;96872.91;2063227;28;20367;-70
2024/03/20 09:25:48;;;;;;;5.47;1.70;;;;;;;18.53;52.27;96865.00;2066512;28;20202;-70
2024/03/20 09:26:51;;;;;;;6.35;1.90;;;;;;;19.03;50.17;96865.72;2075105;28;20823;-69
2024/03/20 09:27:51;;;;;;;3.97;1.50;;;;;;;19.05;51.14;96863.78;2079676;28;20220;-69
2024/03/20 09:28:52;;;;;;;3.07;1.20;;;;;;;18.04;52.38;96867.63;2070351;28;20266;-69
2024/03/20 09:29:52;;;;;;;3.50;0.90;;;;;;;18.47;51.20;96870.75;2071624;28;20482;-69
2024/03/20 09:30:53;;;;;;;4.17;1.23;;;;;;;18.80;50.13;96869.22;2074899;28;20572;-70
2024/03/20 09:31:54;;;;;;;3.73;1.57;;;;;;;17.91;51.76;96862.31;2071249;28;20202;-70
2024/03/20 09:32:54;;;;;;;2.43;1.20;;;;;;;16.80;54.04;96864.59;2070346;28;20269;-70
2024/03/20 09:33:55;;;;;;;4.03;1.10;;;;;;;17.12;54.01;96859.81;2071353;28;20855;-70
2024/03/20 09:34:58;;;;;;;6.53;1.50;;;;;;;16.94;54.42;96861.91;2078932;28;20213;-70
2024/03/20 09:35:59;;;;;;;3.25;1.20;;;;;;;17.95;52.30;96860.31;2069989;28;20214;-70
2024/03/20 09:36:59;;;;;;;6.10;1.40;;;;;;;18.03;51.78;96868.56;2069364;28;20237;-69
2024/03/20 09:38:00;;;;;;;2.53;1.20;;;;;;;18.48;51.62;96860.03;2075174;28;20297;-70
2024/03/20 09:39:00;;;;;;;2.70;1.30;;;;;;;18.24;51.22;96862.69;2075088;28;20212;-70
2024/03/20 09:40:01;;;;;;;2.60;1.30;;;;;;;18.11;51.47;96860.91;2078859;28;20232;-70
2024/03/20 09:41:03;;;;;;;3.23;1.33;;;;;;;18.15;51.75;96866.81;2071286;28;20214;-70
2024/03/20 09:42:04;;;;;;;3.25;1.15;;;;;;;18.87;51.40;96863.34;2064125;28;20199;-70
2024/03/20 09:43:05;;;;;;;4.30;1.00;;;;;;;19.00;51.13;96867.75;2073253;28;20201;-70
2024/03/20 09:44:11;;;;;;;5.77;1.27;;;;;;;18.92;51.02;96869.16;2072548;28;20210;-70
2024/03/20 09:45:13;;;;;;;2.53;1.15;;;;;;;19.25;50.08;96861.44;2068949;28;20268;-70
2024/03/20 09:46:19;;;;;;;4.97;1.58;;;;;;;18.90;51.25;96871.06;2066486;28;20206;-70
2024/03/20 09:47:20;;;;;;;6.07;1.25;;;;;;;18.34;51.61;96862.88;2071827;28;20614;-70
2024/03/20 09:48:21;;;;;;;5.32;1.33;;;;;;;17.57;52.82;96867.34;2070226;28;20373;-70
2024/03/20 09:49:23;;;;;;;3.08;1.45;;;;;;;17.54;53.73;96870.16;2069259;28;20698;-70
2024/03/20 09:50:24;;;;;;;3.00;1.08;;;;;;;18.75;52.11;96869.53;2068739;28;20229;-70
2024/03/20 09:51:26;;;;;;;2.33;1.03;;;;;;;19.08;50.80;96863.56;2070428;28;20210;-71
2024/03/20 09:52:26;;;;;;;3.53;1.30;;;;;;;19.30;50.99;96864.56;2062450;28;20445;-70
2024/03/20 09:53:30;;;;;;;3.50;1.20;;;;;;;19.94;49.81;96865.84;2064136;28;20206;-70
2024/03/20 09:54:31;;;;;;;6.28;1.67;;;;;;;19.70;48.40;96864.13;2063765;28;20206;-70
2024/03/20 09:55:35;;;;;;;3.92;1.52;;;;;;;18.93;50.04;96862.06;2066641;28;20206;-70
2024/03/20 09:56:36;;;;;;;2.00;1.25;;;;;;;18.36;50.06;96863.56;2064986;28;20210;-70
2024/03/20 09:57:41;;;;;;;5.72;1.35;;;;;;;17.69;50.05;96862.16;2067113;28;20210;-70
2024/03/20 09:58:42;;;;;;;5.97;1.45;;;;;;;18.07;50.29;96859.44;2064145;28;20722;-70
2024/03/20 09:59:50;;;;;;;2.70;1.50;;;;;;;18.75;49.65;96865.09;2062130;28;20238;-70
2024/03/20 10:00:50;;;;;;;4.20;1.33;;;;;;;18.83;48.90;96851.31;2063075;28;20692;-70
2024/03/20 10:01:51;;;;;;;5.80;1.50;;;;;;;18.52;48.92;96856.22;2063561;28;20206;-70
2024/03/20 10:02:53;;;;;;;2.90;1.13;;;;;;;18.88;47.96;96864.16;2063428;28;20234;-70
2024/03/20 10:03:54;;;;;;;2.80;1.30;;;;;;;17.99;49.41;96853.88;2066793;28;20261;-70
2024/03/20 10:04:55;;;;;;;2.70;1.30;;;;;;;17.46;51.13;96860.16;2068883;28;20932;-70
2024/03/20 10:05:56;;;;;;;3.20;1.10;;;;;;;18.06;50.68;96854.28;2062563;28;20203;-70
2024/03/20 10:06:56;;;;;;;3.33;1.27;;;;;;;18.32;50.42;96849.75;2068193;28;20202;-70
2024/03/20 10:07:57;;;;;;;5.43;1.17;;;;;;;18.32;50.08;96855.06;2070286;28;20202;-70
2024/03/20 10:09:00;;;;;;;3.10;1.10;;;;;;;18.06;50.07;96857.75;2065750;28;20237;-70
2024/03/20 10:10:04;;;;;;;4.15;1.55;;;;;;;18.46;50.12;96816.16;2060800;28;20543;-70
2024/03/20 10:11:07;;;;;;;2.15;1.05;;;;;;;19.31;48.27;96855.69;2067049;28;20206;-69
2024/03/20 10:12:08;;;;;;;3.05;1.20;;;;;;;18.76;49.07;96855.34;2062597;28;20229;-71
2024/03/20 10:13:13;;;;;;;3.85;1.20;;;;;;;19.24;48.29;96859.75;2067168;28;20214;-70
2024/03/20 10:14:13;;;;;;;2.20;1.20;;;;;;;19.27;48.10;96859.50;2068701;28;20202;-70
2024/03/20 10:15:14;;;;;;;3.30;1.20;;;;;;;19.32;48.04;96856.50;2061604;28;20248;-70
2024/03/20 10:16:16;;;;;;;2.47;1.07;;;;;;;20.25;46.52;96844.81;2063891;28;20210;-70
2024/03/20 10:17:17;;;;;;;2.35;1.15;;;;;;;20.53;46.10;96845.22;2063974;28;20214;-70
2024/03/20 10:18:18;;;;;;;3.97;1.50;;;;;;;19.70;46.98;96855.34;2068371;28;20202;-70
2024/03/20 10:19:25;;;;;;;4.30;1.47;;;;;;;19.81;47.81;96865.09;2061244;28;20218;-70
2024/03/20 10:20:25;;;;;;;2.83;1.30;;;;;;;18.92;49.45;96842.69;2054804;28;20249;-70
2024/03/20 10:21:28;;;;;;;2.90;1.30;;;;;;;20.25;47.30;96858.06;2058226;28;20207;-71
2024/03/20 10:22:32;;;;;;;2.65;1.20;;;;;;;19.94;47.31;96859.72;2063501;28;20203;-71
2024/03/20 10:23:40;;;;;;;4.90;1.75;;;;;;;20.16;47.02;96848.22;2067136;28;20210;-71
2024/03/20 10:24:41;;;;;;;6.78;1.10;;;;;;;20.73;46.40;96851.56;2066078;28;20207;-70
2024/03/20 10:25:42;;;;;;;3.22;1.40;;;;;;;-145.49;100.00;55703.94;2069466;28;20227;-70
2024/03/20 10:26:43;;;;;;;4.73;1.10;;;;;;;-145.49;100.00;55703.94;2065082;28;20264;-71
2024/03/20 10:27:48;;;;;;;5.70;1.37;;;;;;;-145.49;100.00;55703.94;2063985;28;20210;-71
2024/03/20 10:28:50;;;;;;;3.15;1.35;;;;;;;-145.49;100.00;55703.94;2065595;28;20202;-71
2024/03/20 10:29:53;;;;;;;4.35;0.98;;;;;;;-145.49;100.00;55703.94;2065411;28;20229;-70
2024/03/20 10:30:56;;;;;;;4.88;1.20;;;;;;;-145.49;100.00;55703.94;2067586;28;20202;-71
2024/03/20 10:31:57;;;;;;;2.42;1.33;;;;;;;-145.49;100.00;55703.94;2068695;28;20244;-71
2024/03/20 10:32:58;;;;;;;2.22;1.02;;;;;;;-145.49;100.00;55703.94;2068861;28;20230;-71
2024/03/20 10:34:00;;;;;;;5.40;1.87;;;;;;;-145.49;100.00;55703.94;2061978;28;20210;-70
2024/03/20 10:35:01;;;;;;;2.45;1.13;;;;;;;-145.49;100.00;55703.94;2056754;28;20223;-69
2024/03/20 10:36:02;;;;;;;2.03;1.10;;;;;;;-145.49;100.00;55703.94;2062836;28;20268;-70
2024/03/20 10:37:06;;;;;;;3.73;1.20;;;;;;;-145.49;100.00;55703.94;2063886;28;20308;-72
2024/03/20 10:38:09;;;;;;;1.85;1.00;;;;;;;-145.49;100.00;55703.94;2063250;28;20436;-71
2024/03/20 10:39:17;;;;;;;3.35;1.08;;;;;;;-145.49;100.00;55703.94;2056066;28;20207;-69
2024/03/20 10:40:21;;;;;;;4.65;1.35;;;;;;;-145.49;100.00;55703.94;2057841;28;20219;-72
2024/03/20 10:41:22;;;;;;;3.13;1.30;;;;;;;-145.49;100.00;55703.94;2064926;28;20203;-71
2024/03/20 10:42:25;;;;;;;4.40;1.47;;;;;;;-145.49;100.00;55703.94;2073688;28;20209;-71
2024/03/20 10:43:27;;;;;;;2.75;1.10;;;;;;;-145.49;100.00;55703.94;2072230;28;20208;-70
2024/03/20 10:44:29;;;;;;;2.22;1.20;;;;;;;-145.49;100.00;55703.94;2063186;28;20253;-70
2024/03/20 10:45:30;;;;;;;2.58;1.05;;;;;;;-145.49;100.00;55703.94;2054214;28;20223;-71
2024/03/20 10:46:31;;;;;;;1.95;0.98;;;;;;;-145.49;100.00;55703.94;2057027;28;20328;-70
2024/03/20 10:47:32;;;;;;;3.47;1.30;;;;;;;-145.49;100.00;55703.94;2061141;28;20218;-72
2024/03/20 10:48:32;;;;;;;2.60;1.00;;;;;;;-145.49;100.00;55703.94;2060046;28;20293;-71
2024/03/20 10:49:34;;;;;;;2.33;1.10;;;;;;;-145.49;100.00;55703.94;2058907;28;20206;-71
2024/03/20 10:50:35;;;;;;;8.07;1.00;;;;;;;-145.49;100.00;55703.94;2061506;28;20226;-71
2024/03/20 10:51:36;;;;;;;2.37;1.10;;;;;;;-145.49;100.00;55703.94;2062894;28;20202;-71
2024/03/20 10:52:36;;;;;;;2.00;0.97;;;;;;;-145.49;100.00;55703.94;2069249;28;20302;-71
2024/03/20 10:53:37;;;;;;;2.37;1.00;;;;;;;-145.49;100.00;55703.94;2065522;28;20198;-70
2024/03/20 10:54:37;;;;;;;2.30;0.87;;;;;;;-145.49;100.00;55703.94;2057029;28;20211;-71
2024/03/20 10:55:38;;;;;;;2.20;1.03;;;;;;;-145.49;100.00;55703.94;2056875;28;20259;-71
2024/03/20 10:56:43;;;;;;;4.20;0.98;;;;;;;-145.49;100.00;55703.94;2063578;28;20809;-71
2024/03/20 10:57:46;;;;;;;5.03;1.00;;;;;;;-145.49;100.00;55703.94;2062025;28;20211;-71
2024/03/20 10:58:59;;;;;;;1.63;1.00;;;;;;;-145.49;100.00;55703.94;2062060;28;20206;-71
2024/03/20 11:00:01;;;;;;;3.70;1.25;;;;;;;-145.49;100.00;55703.94;2063880;28;20226;-70
2024/03/20 11:01:02;;;;;;;4.15;1.08;;;;;;;-145.49;100.00;55703.94;2070315;28;20233;-71
2024/03/20 11:02:04;;;;;;;3.92;1.17;;;;;;;-145.49;100.00;55703.94;2063608;28;20206;-71
2024/03/20 11:03:42;;;;;;;2.42;1.20;;;;;;;-145.49;100.00;55703.94;2062947;28;20280;-71
2024/03/20 11:04:44;;;;;;;3.47;1.10;;;;;;;-145.49;100.00;55703.94;2064765;28;20647;-71
2024/03/20 11:05:45;;;;;;;1.50;0.90;;;;;;;-145.49;100.00;55703.94;2053314;28;20400;-71
2024/03/20 11:06:45;;;;;;;1.83;1.00;;;;;;;-145.49;100.00;55703.94;2060857;28;20214;-71
2024/03/20 11:07:46;;;;;;;2.20;1.13;;;;;;;-145.49;100.00;55703.94;2067434;28;20216;-70
2024/03/20 11:09:17;;;;;;;2.17;0.97;;;;;;;-145.49;100.00;55703.94;2058557;28;20203;-71
2024/03/20 11:10:19;;;;;;;5.72;1.65;;;;;;;-145.49;100.00;55703.94;2059618;28;20221;-71
2024/03/20 11:11:20;;;;;;;1.23;0.70;;;;;;;-145.49;100.00;55703.94;2060555;28;20222;-70
2024/03/20 11:12:27;;;;;;;2.70;0.97;;;;;;;-145.49;100.00;55703.94;2062515;28;20684;-70
2024/03/20 11:13:28;;;;;;;2.45;1.05;;;;;;;-145.49;100.00;55703.94;2071398;28;20694;-71
2024/03/20 11:14:30;;;;;;;4.53;1.00;;;;;;;-145.49;100.00;55703.94;2069043;28;20585;-71
2024/03/20 11:15:32;;;;;;;3.95;1.20;;;;;;;-145.49;100.00;55703.94;2065874;28;20230;-71
2024/03/20 11:16:33;;;;;;;5.25;1.10;;;;;;;-145.49;100.00;55703.94;2062982;28;20774;-71
2024/03/20 11:17:35;;;;;;;2.03;0.90;;;;;;;-145.49;100.00;55703.94;2058501;28;20215;-70
2024/03/20 11:18:36;;;;;;;1.58;1.00;;;;;;;-145.49;100.00;55703.94;2055863;28;20211;-71
2024/03/20 11:19:36;;;;;;;2.13;1.20;;;;;;;-145.49;100.00;55703.94;2062322;28;20201;-70
2024/03/20 11:20:39;;;;;;;2.60;1.00;;;;;;;-145.49;100.00;55703.94;2059583;28;20461;-71
2024/03/20 11:21:39;;;;;;;3.15;1.30;;;;;;;-145.49;100.00;55703.94;2063351;28;20210;-71
2024/03/20 11:22:40;;;;;;;2.93;1.30;;;;;;;-145.49;100.00;55703.94;2063544;28;20214;-70
2024/03/20 11:23:42;;;;;;;3.70;1.00;;;;;;;-145.49;100.00;55703.94;2060509;28;20214;-71
2024/03/20 11:24:43;;;;;;;2.58;1.02;;;;;;;-145.49;100.00;55703.94;2054441;28;20210;-71
2024/03/20 11:25:45;;;;;;;1.90;0.93;;;;;;;-145.49;100.00;55703.94;2055601;28;20207;-71
2024/03/20 11:26:46;;;;;;;3.40;1.20;;;;;;;-145.49;100.00;55703.94;2059930;28;20538;-71
2024/03/20 11:27:46;;;;;;;7.70;1.00;;;;;;;-145.49;100.00;55703.94;2062841;28;20825;-71
2024/03/20 11:28:47;;;;;;;1.90;0.90;;;;;;;-145.49;100.00;55703.94;2057371;28;20207;-71
2024/03/20 11:29:47;;;;;;;2.33;1.00;;;;;;;-145.49;100.00;55703.94;2066748;28;20284;-71
2024/03/20 11:30:49;;;;;;;2.40;1.10;;;;;;;-145.49;100.00;55703.94;2068081;28;20455;-71
2024/03/20 11:31:49;;;;;;;3.08;1.10;;;;;;;-145.49;100.00;55703.94;2059466;28;20210;-71
2024/03/20 11:32:50;;;;;;;1.70;1.10;;;;;;;-145.49;100.00;55703.94;2055590;28;20206;-71
2024/03/20 11:33:50;;;;;;;5.93;0.90;;;;;;;-145.49;100.00;55703.94;2054408;28;20902;-70
2024/03/20 11:34:51;;;;;;;9.87;1.00;;;;;;;-145.49;100.00;55703.94;2062154;28;20272;-71
2024/03/20 11:35:51;;;;;;;2.13;0.93;;;;;;;-145.49;100.00;55703.94;2063474;28;20276;-71
2024/03/20 11:36:52;;;;;;;2.40;1.03;;;;;;;-145.49;100.00;55703.94;2059827;28;20227;-71
2024/03/20 11:37:53;;;;;;;2.80;0.93;;;;;;;-145.49;100.00;55703.94;2059610;28;20218;-71
2024/03/20 11:38:55;;;;;;;1.97;1.10;;;;;;;-145.49;100.00;55703.94;2057991;28;20286;-71
2024/03/20 11:39:56;;;;;;;1.65;0.88;;;;;;;-145.49;100.00;55703.94;2059800;28;20472;-71
2024/03/20 11:40:58;;;;;;;4.57;1.20;;;;;;;-145.49;100.00;55703.94;2065999;28;20198;-71
2024/03/20 11:42:03;;;;;;;1.40;0.80;;;;;;;-145.49;100.00;55703.94;2058496;28;20715;-71
2024/03/20 11:43:03;;;;;;;2.67;0.90;;;;;;;-145.49;100.00;55703.94;2059863;28;20198;-71
2024/03/20 11:44:05;;;;;;;3.33;0.87;;;;;;;-145.49;100.00;55703.94;2063285;28;20640;-71